createdAt,value
2022-08-27T18:30:03.328Z,740.77
2022-08-27T18:32:33.257Z,702.47
2022-08-27T18:35:10.563Z,677.93
2022-08-27T18:37:40.347Z,668.17
2022-08-27T18:40:11.836Z,671.97
2022-08-27T18:42:42.710Z,652.43
2022-08-27T18:45:23.081Z,653.67
2022-08-27T18:47:54.495Z,649.47
2022-08-27T18:50:25.278Z,632.07
2022-08-27T18:52:57.563Z,642.57
2022-08-27T18:55:28.713Z,628.20
2022-08-27T18:57:58.616Z,617.13
2022-08-27T19:00:28.471Z,619.43
2022-08-27T19:02:58.281Z,622.93
2022-08-27T19:05:29.989Z,627.40
2022-08-27T19:08:01.063Z,614.43
2022-08-27T19:10:30.783Z,612.07
2022-08-27T19:13:00.469Z,607.90
2022-08-27T19:15:30.243Z,607.70
2022-08-27T19:18:03.055Z,608.97
2022-08-27T19:20:33.834Z,603.70
2022-08-27T19:23:03.696Z,596.20
2022-08-27T19:25:33.522Z,591.73
2022-08-27T19:28:03.718Z,598.70
2022-08-27T19:30:33.461Z,598.87
2022-08-27T19:33:03.259Z,584.27
2022-08-27T19:35:34.395Z,589.63
2022-08-27T19:38:04.684Z,591.50
2022-08-27T19:40:38.438Z,575.97
2022-08-27T19:43:08.535Z,580.07
2022-08-27T19:45:40.451Z,552.40
2022-08-27T19:48:12.642Z,562.67
2022-08-27T19:50:43.237Z,571.13
2022-08-27T19:53:13.404Z,567.97
2022-08-27T19:55:46.210Z,549.83
2022-08-27T19:58:17.319Z,552.20
2022-08-27T20:00:47.964Z,545.70
2022-08-27T20:03:17.903Z,546.20
2022-08-27T20:05:50.683Z,534.00
2022-08-27T20:08:21.021Z,544.13
2022-08-27T20:10:51.422Z,540.33
2022-08-27T20:13:21.535Z,530.03
2022-08-27T20:15:52.835Z,534.80
2022-08-27T20:18:24.036Z,536.20
2022-08-27T20:20:53.805Z,530.03
2022-08-27T20:23:25.052Z,529.13
2022-08-27T20:25:59.155Z,524.20
2022-08-27T20:28:39.782Z,529.83
2022-08-27T20:31:10.681Z,520.77
2022-08-27T20:33:40.786Z,532.57
2022-08-27T20:36:11.379Z,531.87
2022-08-27T20:38:41.417Z,532.17
2022-08-27T20:41:11.244Z,534.73
2022-08-27T20:43:40.926Z,519.37
2022-08-27T20:46:11.307Z,517.20
2022-08-27T20:48:41.055Z,512.27
2022-08-27T20:51:11.452Z,533.57
2022-08-27T20:53:41.217Z,535.57
2022-08-27T20:56:11.257Z,524.67
2022-08-27T20:58:53.398Z,516.80
2022-08-27T21:01:23.743Z,524.73
2022-08-27T21:03:54.439Z,509.47
2022-08-27T21:06:26.527Z,521.83
2022-08-27T21:08:56.821Z,512.87
2022-08-27T21:11:26.911Z,515.00
2022-08-27T21:13:56.900Z,514.07
2022-08-27T21:16:28.296Z,516.10
2022-08-27T21:18:58.294Z,517.10
2022-08-27T21:21:27.985Z,516.20
2022-08-27T21:23:58.245Z,509.60
2022-08-27T21:26:27.982Z,509.67
2022-08-27T21:28:57.695Z,518.37
2022-08-27T21:31:28.159Z,508.47
2022-08-27T21:33:58.215Z,502.67
2022-08-27T21:36:27.864Z,512.47
2022-08-27T21:38:57.654Z,518.13
2022-08-27T21:41:27.417Z,508.47
2022-08-27T21:43:57.818Z,499.77
2022-08-27T21:46:27.513Z,511.37
2022-08-27T21:48:59.122Z,504.63
2022-08-27T21:51:29.086Z,518.30
2022-08-27T21:54:00.413Z,506.90
2022-08-27T21:56:30.763Z,507.63
2022-08-27T21:59:00.525Z,503.83
2022-08-27T22:01:30.306Z,500.13
2022-08-27T22:03:59.964Z,508.03
2022-08-27T22:06:29.718Z,511.30
2022-08-27T22:08:59.441Z,496.10
2022-08-27T22:11:30.632Z,507.50
2022-08-27T22:14:01.159Z,495.47
2022-08-27T22:16:31.030Z,485.23
2022-08-27T22:19:00.769Z,497.53
2022-08-27T22:21:30.459Z,480.37
2022-08-27T22:24:00.199Z,481.33
2022-08-27T22:26:30.257Z,492.97
2022-08-27T22:28:59.939Z,495.53
2022-08-27T22:31:31.289Z,483.37
2022-08-27T22:34:02.850Z,484.43
2022-08-27T22:36:32.635Z,487.47
2022-08-27T22:39:03.705Z,477.30
2022-08-27T22:41:34.084Z,477.97
2022-08-27T22:44:04.575Z,477.93
2022-08-27T22:46:35.663Z,473.93
2022-08-27T22:49:05.503Z,464.53
2022-08-27T22:51:35.210Z,457.60
2022-08-27T22:54:04.940Z,466.67
2022-08-27T22:56:34.677Z,486.57
2022-08-27T22:59:07.346Z,462.57
2022-08-27T23:01:38.780Z,462.17
2022-08-27T23:04:09.255Z,472.43
2022-08-27T23:06:39.238Z,473.37
2022-08-27T23:09:09.138Z,465.80
2022-08-27T23:11:39.056Z,467.17
2022-08-27T23:14:08.750Z,477.93
2022-08-27T23:16:38.602Z,462.70
2022-08-27T23:19:08.258Z,455.87
2022-08-27T23:21:38.565Z,457.50
2022-08-27T23:24:08.328Z,475.73
2022-08-27T23:26:50.629Z,459.23
2022-08-27T23:29:22.690Z,448.77
2022-08-27T23:31:53.965Z,453.27
2022-08-27T23:34:23.920Z,458.87
2022-08-27T23:36:53.641Z,465.67
2022-08-27T23:39:23.377Z,452.57
2022-08-27T23:41:53.142Z,455.40
2022-08-27T23:44:22.865Z,446.73
2022-08-27T23:46:52.565Z,444.37
2022-08-27T23:49:22.274Z,449.33
2022-08-27T23:51:51.971Z,458.80
2022-08-27T23:54:21.855Z,445.77
2022-08-27T23:56:51.538Z,449.10
2022-08-27T23:59:21.255Z,460.57
